createdAt,value
2022-12-01T00:01:21.099Z,96897.19
2022-12-01T00:03:48.218Z,96899.13
2022-12-01T00:06:19.371Z,96891.19
2022-12-01T00:09:08.142Z,96898.41
2022-12-01T00:11:37.883Z,96889.06
2022-12-01T00:14:05.619Z,96881.56
2022-12-01T00:16:34.089Z,96884.03
2022-12-01T00:19:01.028Z,96881.78
2022-12-01T00:21:28.310Z,96883.47
2022-12-01T00:23:57.414Z,96881.13
2022-12-01T00:26:25.504Z,96877.13
2022-12-01T00:28:59.614Z,96879.13
2022-12-01T00:31:27.366Z,96886.19
2022-12-01T00:33:54.943Z,96884.06
2022-12-01T00:36:22.260Z,96873.75
2022-12-01T00:38:53.650Z,96874.81
2022-12-01T00:41:21.141Z,96870.97
2022-12-01T00:43:48.002Z,96875.84
2022-12-01T00:46:15.080Z,96877.19
2022-12-01T00:48:42.283Z,96875.59
2022-12-01T00:51:09.325Z,96870.38
2022-12-01T00:53:36.123Z,96875.28
2022-12-01T00:56:02.964Z,96876.22
2022-12-01T00:58:29.739Z,96880.47
2022-12-01T01:01:01.726Z,96876.22
2022-12-01T01:03:30.317Z,96885.81
2022-12-01T01:06:00.199Z,96881.16
2022-12-01T01:08:26.999Z,96888.44
2022-12-01T01:10:53.790Z,96881.84
2022-12-01T01:13:20.599Z,96884.13
2022-12-01T01:16:18.044Z,96894.41
2022-12-01T01:18:45.649Z,96886.44
2022-12-01T01:21:16.532Z,96889.09
2022-12-01T01:23:43.917Z,96882.81
2022-12-01T01:26:20.198Z,96879.88
2022-12-01T01:28:48.264Z,96876.91
2022-12-01T01:31:19.445Z,96879.78
2022-12-01T01:33:46.606Z,96878.97
2022-12-01T01:36:14.806Z,96873.56
2022-12-01T01:38:42.978Z,96877.19
2022-12-01T01:41:10.155Z,96873.84
2022-12-01T01:43:56.856Z,96877.59
2022-12-01T01:46:33.327Z,96872.53
2022-12-01T01:49:10.851Z,96877.53
2022-12-01T01:51:52.884Z,96885.09
2022-12-01T01:54:31.466Z,96864.47
2022-12-01T01:57:01.384Z,96873.44
2022-12-01T01:59:34.105Z,96868.13
2022-12-01T02:02:06.554Z,96870.81
2022-12-01T02:04:36.855Z,96884.50
2022-12-01T02:07:05.093Z,96879.88
2022-12-01T02:09:31.876Z,96849.38
2022-12-01T02:12:35.928Z,96866.22
2022-12-01T02:15:31.783Z,96864.25
2022-12-01T02:18:35.167Z,96866.94
2022-12-01T02:21:12.941Z,96871.56
2022-12-01T02:24:06.550Z,96859.03
2022-12-01T02:27:08.542Z,96863.81
2022-12-01T02:30:04.845Z,96858.16
2022-12-01T02:33:09.180Z,96854.44
2022-12-01T02:35:48.275Z,96839.41
2022-12-01T02:38:31.157Z,96839.69
2022-12-01T02:41:27.916Z,96845.94
2022-12-01T02:44:11.018Z,96844.09
2022-12-01T02:46:55.009Z,96841.94
2022-12-01T02:49:31.377Z,96844.03
2022-12-01T02:51:59.635Z,96835.78
2022-12-01T02:54:30.604Z,96836.75
2022-12-01T02:56:57.809Z,96833.66
2022-12-01T02:59:24.674Z,96838.13
2022-12-01T03:02:04.429Z,96844.03
2022-12-01T03:04:55.989Z,96823.03
2022-12-01T03:07:47.966Z,96827.97
2022-12-01T03:10:57.840Z,96835.38
2022-12-01T03:13:49.695Z,96827.13
2022-12-01T03:16:33.974Z,96834.66
2022-12-01T03:19:08.051Z,96830.78
2022-12-01T03:21:52.792Z,96829.53
2022-12-01T03:24:23.050Z,96838.66
2022-12-01T03:26:56.905Z,96829.59
2022-12-01T03:29:38.685Z,96832.72
2022-12-01T03:32:47.439Z,96832.84
2022-12-01T03:35:24.472Z,96833.16
2022-12-01T03:38:08.170Z,96838.06
2022-12-01T03:40:37.931Z,96833.44
2022-12-01T03:43:10.765Z,96835.91
2022-12-01T03:46:07.799Z,96828.63
2022-12-01T03:48:37.046Z,96833.81
2022-12-01T03:51:25.727Z,96839.41
2022-12-01T03:54:03.048Z,96834.22
2022-12-01T03:56:36.886Z,96840.06
2022-12-01T03:59:06.363Z,96845.63
2022-12-01T04:01:36.707Z,96846.47
2022-12-01T04:04:11.673Z,96844.38
2022-12-01T04:06:42.659Z,96841.47
2022-12-01T04:09:09.473Z,96845.34
2022-12-01T04:11:54.668Z,96848.31
2022-12-01T04:14:21.928Z,96848.03
2022-12-01T04:16:48.768Z,96841.84
2022-12-01T04:19:15.779Z,96841.47
2022-12-01T04:21:42.751Z,96849.66
2022-12-01T04:24:09.756Z,96842.81
2022-12-01T04:26:37.610Z,96846.31
2022-12-01T04:29:07.852Z,96848.31
2022-12-01T04:31:35.210Z,96846.66
2022-12-01T04:34:02.285Z,96836.56
2022-12-01T04:36:34.419Z,96842.28
2022-12-01T04:39:02.072Z,96843.09
2022-12-01T04:41:28.993Z,96834.84
2022-12-01T04:43:56.485Z,96829.78
2022-12-01T04:46:24.169Z,96831.97
2022-12-01T04:48:51.267Z,96836.50
2022-12-01T04:51:18.212Z,96838.28
2022-12-01T04:53:45.023Z,96833.88
2022-12-01T04:56:11.909Z,96828.69
2022-12-01T04:58:39.854Z,96834.41
2022-12-01T05:01:10.527Z,96831.00
2022-12-01T05:03:39.834Z,96834.63
2022-12-01T05:06:11.340Z,96837.81
2022-12-01T05:08:38.367Z,96842.66
2022-12-01T05:11:07.951Z,96844.91
2022-12-01T05:13:40.244Z,96844.63
2022-12-01T05:16:08.350Z,96850.66
2022-12-01T05:18:35.657Z,96844.63
2022-12-01T05:21:04.879Z,96852.81
2022-12-01T05:23:35.117Z,96849.53
2022-12-01T05:26:04.948Z,96845.63
2022-12-01T05:28:31.827Z,96844.66
2022-12-01T05:30:58.875Z,96851.84
2022-12-01T05:33:27.971Z,96848.25
2022-12-01T05:35:55.347Z,96849.44
2022-12-01T05:38:22.153Z,96853.84
2022-12-01T05:40:54.915Z,96854.44
2022-12-01T05:43:28.649Z,96853.53
2022-12-01T05:45:57.396Z,96856.06
2022-12-01T05:48:25.116Z,96855.78
2022-12-01T05:50:51.927Z,96856.28
2022-12-01T05:53:19.600Z,96857.09
2022-12-01T05:55:46.896Z,96856.22
2022-12-01T05:58:13.684Z,96847.75
2022-12-01T06:00:45.559Z,96853.63
2022-12-01T06:03:13.595Z,96863.38
2022-12-01T06:05:40.929Z,96852.38
2022-12-01T06:08:08.277Z,96856.66
2022-12-01T06:10:35.500Z,96856.38
2022-12-01T06:13:02.442Z,96862.09
2022-12-01T06:15:29.332Z,96865.16
2022-12-01T06:17:59.748Z,96856.66
2022-12-01T06:20:26.621Z,96869.63
2022-12-01T06:22:53.620Z,96857.56
2022-12-01T06:25:20.665Z,96857.66
2022-12-01T06:27:47.754Z,96864.88
2022-12-01T06:30:14.769Z,96871.69
2022-12-01T06:32:41.762Z,96871.78
2022-12-01T06:35:09.000Z,96871.50
2022-12-01T06:37:35.780Z,96870.06
2022-12-01T06:40:02.584Z,96874.97
2022-12-01T06:42:31.540Z,96868.50
2022-12-01T06:44:58.420Z,96874.09
2022-12-01T06:47:25.279Z,96882.13
2022-12-01T06:49:52.314Z,96882.13
2022-12-01T06:52:19.437Z,96876.25
2022-12-01T06:54:46.258Z,96876.91
2022-12-01T06:57:13.370Z,96883.75
2022-12-01T06:59:40.408Z,96881.16
2022-12-01T07:02:11.102Z,96883.16
2022-12-01T07:04:38.066Z,96870.28
2022-12-01T07:07:05.904Z,96886.69
2022-12-01T07:09:32.875Z,96880.66
2022-12-01T07:11:59.860Z,96883.25
2022-12-01T07:14:27.224Z,96880.34
2022-12-01T07:16:54.376Z,96889.13
2022-12-01T07:19:21.304Z,96887.56
2022-12-01T07:21:48.094Z,96892.13
2022-12-01T07:24:15.043Z,96898.66
2022-12-01T07:26:42.951Z,96886.31
2022-12-01T07:29:10.678Z,96892.53
2022-12-01T07:31:38.575Z,96896.13
2022-12-01T07:34:06.211Z,96897.09
2022-12-01T07:36:33.160Z,96894.19
2022-12-01T07:39:00.648Z,96903.34
2022-12-01T07:41:27.457Z,96899.09
2022-12-01T07:43:55.582Z,96891.81
2022-12-01T07:46:25.712Z,96898.78
2022-12-01T07:48:54.763Z,96889.94
2022-12-01T07:51:23.234Z,96899.44
2022-12-01T07:53:52.123Z,96900.47
2022-12-01T07:56:20.831Z,96901.31
2022-12-01T07:58:47.731Z,96900.25
2022-12-01T08:01:19.130Z,96900.25
2022-12-01T08:03:48.244Z,96903.44
2022-12-01T08:06:15.050Z,96902.22
2022-12-01T08:08:42.131Z,96910.22
2022-12-01T08:11:18.528Z,96904.84
2022-12-01T08:13:45.531Z,96907.97
2022-12-01T08:16:16.188Z,96909.91
2022-12-01T08:18:44.013Z,96910.22
2022-12-01T08:21:16.200Z,96917.09
2022-12-01T08:23:43.405Z,96909.41
2022-12-01T08:26:16.718Z,96911.66
2022-12-01T08:28:44.761Z,96916.16
2022-12-01T08:31:22.324Z,96911.75
2022-12-01T08:33:50.758Z,96913.44
2022-12-01T08:36:20.441Z,96911.53
2022-12-01T08:38:50.247Z,96912.84
2022-12-01T08:41:17.556Z,96914.19
2022-12-01T08:44:01.332Z,96916.84
2022-12-01T08:46:32.619Z,96913.59
2022-12-01T08:48:59.962Z,96907.25
2022-12-01T08:51:27.162Z,96915.78
2022-12-01T08:53:57.385Z,96915.31
2022-12-01T08:56:35.838Z,96920.44
2022-12-01T08:59:02.914Z,96914.25
2022-12-01T09:01:29.962Z,96923.69
2022-12-01T09:04:10.330Z,96911.97
2022-12-01T09:06:46.694Z,96919.66
2022-12-01T09:09:17.138Z,96925.72
2022-12-01T09:11:47.448Z,96925.41
2022-12-01T09:14:16.300Z,96926.91
2022-12-01T09:16:45.367Z,96925.75
2022-12-01T09:19:17.929Z,96925.03
2022-12-01T09:21:48.997Z,96922.03
2022-12-01T09:24:16.752Z,96922.09
2022-12-01T09:26:43.740Z,96916.91
2022-12-01T09:29:13.732Z,96928.38
2022-12-01T09:31:41.835Z,96918.09
2022-12-01T09:34:15.045Z,96927.13
2022-12-01T09:36:42.133Z,96921.91
2022-12-01T09:39:15.424Z,96922.06
2022-12-01T09:41:55.366Z,96912.84
2022-12-01T09:44:40.732Z,96914.00
2022-12-01T09:47:22.628Z,96904.72
2022-12-01T09:49:51.775Z,96915.16
2022-12-01T09:52:20.060Z,96917.69
2022-12-01T09:54:48.020Z,96911.84
2022-12-01T09:57:27.247Z,96912.44
2022-12-01T09:59:54.773Z,96918.22
2022-12-01T10:03:09.675Z,96911.38
2022-12-01T10:06:24.629Z,96906.88
2022-12-01T10:08:42.388Z,96898.72
2022-12-01T10:11:27.096Z,96898.69
2022-12-01T10:13:53.972Z,96893.16
2022-12-01T10:16:30.348Z,96891.16
2022-12-01T10:19:21.123Z,96889.13
2022-12-01T10:22:21.801Z,96887.25
2022-12-01T10:25:10.610Z,96885.94
2022-12-01T10:28:02.475Z,96874.22
2022-12-01T10:30:29.645Z,96870.91
2022-12-01T10:33:17.519Z,96883.28
2022-12-01T10:35:44.409Z,96874.75
2022-12-01T10:38:26.346Z,96875.91
2022-12-01T10:40:55.320Z,96876.44
2022-12-01T10:43:50.704Z,96869.25
2022-12-01T10:46:42.130Z,96870.84
2022-12-01T10:49:15.092Z,96871.34
2022-12-01T10:51:53.703Z,96860.72
2022-12-01T10:54:34.432Z,96868.84
2022-12-01T10:57:01.926Z,96859.38
2022-12-01T10:59:36.131Z,96852.50
2022-12-01T11:02:13.947Z,96864.06
2022-12-01T11:04:45.815Z,96856.50
2022-12-01T11:07:23.088Z,96857.78
2022-12-01T11:10:28.884Z,96860.41
2022-12-01T11:13:31.623Z,96851.28
2022-12-01T11:16:02.142Z,96855.22
2022-12-01T11:18:37.018Z,96854.19
2022-12-01T11:21:13.566Z,96849.25
2022-12-01T11:23:52.797Z,96854.44
2022-12-01T11:26:32.156Z,96852.47
2022-12-01T11:29:03.571Z,96849.22
2022-12-01T11:31:44.042Z,96843.63
2022-12-01T11:34:27.000Z,96852.31
2022-12-01T11:36:57.721Z,96844.69
2022-12-01T11:39:35.825Z,96845.03
2022-12-01T11:42:11.870Z,96845.16
2022-12-01T11:44:55.303Z,96841.72
2022-12-01T11:47:26.052Z,96840.09
2022-12-01T11:50:23.925Z,96835.53
2022-12-01T11:52:50.792Z,96839.09
2022-12-01T11:55:17.478Z,96840.13
2022-12-01T11:57:49.673Z,96840.31
2022-12-01T12:00:26.798Z,96837.22
2022-12-01T12:03:20.914Z,96844.00
2022-12-01T12:06:38.510Z,96838.41
2022-12-01T12:10:19.098Z,96842.75
2022-12-01T12:13:36.347Z,96834.91
2022-12-01T12:16:33.494Z,96834.91
2022-12-01T12:20:06.111Z,96832.34
2022-12-01T12:23:09.028Z,96839.22
2022-12-01T12:25:52.680Z,96822.91
2022-12-01T12:29:13.829Z,96826.53
2022-12-01T12:32:08.731Z,96825.53
2022-12-01T12:34:47.435Z,96823.72
2022-12-01T12:37:38.289Z,96824.31
2022-12-01T12:40:55.420Z,96823.19
2022-12-01T12:43:54.772Z,96823.53
2022-12-01T12:47:01.736Z,96825.19
2022-12-01T12:49:43.997Z,96819.13
2022-12-01T12:52:18.034Z,96819.69
2022-12-01T12:54:50.874Z,96826.00
2022-12-01T12:57:39.203Z,96824.19
2022-12-01T13:00:29.548Z,96822.56
2022-12-01T13:03:23.211Z,96825.19
2022-12-01T13:06:07.050Z,96825.16
2022-12-01T13:08:39.030Z,96819.88
2022-12-01T13:11:35.028Z,96822.34
2022-12-01T13:14:07.834Z,96816.31
2022-12-01T13:16:40.632Z,96825.06
2022-12-01T13:19:37.401Z,96832.59
2022-12-01T13:22:07.137Z,96820.22
2022-12-01T13:24:34.381Z,96823.47
2022-12-01T13:27:10.269Z,96824.72
2022-12-01T13:29:43.965Z,96821.53
2022-12-01T13:32:37.716Z,96828.44
2022-12-01T13:35:25.161Z,96827.78
2022-12-01T13:37:52.337Z,96825.16
2022-12-01T13:40:29.838Z,96820.41
2022-12-01T13:42:59.679Z,96819.22
2022-12-01T13:45:33.594Z,96818.78
2022-12-01T13:48:01.800Z,96816.38
2022-12-01T13:50:44.014Z,96811.31
2022-12-01T13:53:27.067Z,96814.91
2022-12-01T13:55:56.948Z,96811.78
2022-12-01T13:58:47.197Z,96812.09
2022-12-01T14:01:20.288Z,96817.00
2022-12-01T14:04:22.348Z,96818.94
2022-12-01T14:07:14.423Z,96821.91
2022-12-01T14:09:42.482Z,96820.25
2022-12-01T14:12:19.643Z,96818.63
2022-12-01T14:15:00.912Z,96820.25
2022-12-01T14:17:37.832Z,96818.94
2022-12-01T14:20:22.165Z,96819.25
2022-12-01T14:23:29.155Z,96820.25
2022-12-01T14:26:14.239Z,96810.97
2022-12-01T14:28:56.091Z,96818.63
2022-12-01T14:31:51.808Z,96815.38
2022-12-01T14:34:26.521Z,96814.41
2022-12-01T14:37:12.263Z,96822.88
2022-12-01T14:39:46.229Z,96822.03
2022-12-01T14:42:56.335Z,96819.91
2022-12-01T14:46:16.817Z,96822.22
2022-12-01T14:48:45.588Z,96816.34
2022-12-01T14:51:32.269Z,96815.66
2022-12-01T14:54:06.700Z,96818.28
2022-12-01T14:56:34.257Z,96811.78
2022-12-01T14:59:14.918Z,96820.59
2022-12-01T15:01:41.845Z,96819.88
2022-12-01T15:04:08.689Z,96821.88
2022-12-01T15:06:36.683Z,96804.88
2022-12-01T15:09:33.463Z,96819.69
2022-12-01T15:12:07.754Z,96815.00
2022-12-01T15:14:47.127Z,96825.44
2022-12-01T15:17:36.978Z,96823.66
2022-12-01T15:20:05.179Z,96821.69
2022-12-01T15:22:33.815Z,96815.94
2022-12-01T15:25:15.591Z,96818.25
2022-12-01T15:27:45.558Z,96822.50
2022-12-01T15:30:16.716Z,96823.28
2022-12-01T15:32:45.702Z,96814.66
2022-12-01T15:35:23.669Z,96822.13
2022-12-01T15:37:52.513Z,96819.03
2022-12-01T15:43:24.821Z,96817.91
2022-12-01T15:45:56.736Z,96821.50
2022-12-01T15:48:42.263Z,96823.44
2022-12-01T15:51:29.368Z,96817.91
2022-12-01T15:53:59.881Z,96824.09
2022-12-01T15:56:34.970Z,96813.00
2022-12-01T15:59:13.252Z,96829.66
2022-12-01T16:01:43.580Z,96816.47
2022-12-01T16:04:20.174Z,96826.91
2022-12-01T16:07:09.601Z,96822.50
2022-12-01T16:09:58.361Z,96821.81
2022-12-01T16:12:32.937Z,96823.63
2022-12-01T16:15:08.456Z,96816.59
2022-12-01T16:17:53.797Z,96805.19
2022-12-01T16:20:23.356Z,96815.94
2022-12-01T16:23:00.460Z,96815.16
2022-12-01T16:25:43.314Z,96818.88
2022-12-01T16:28:25.810Z,96826.91
2022-12-01T16:30:53.471Z,96820.03
2022-12-01T16:33:24.847Z,96812.06
2022-12-01T16:35:52.996Z,96828.00
2022-12-01T16:38:23.774Z,96821.16
2022-12-01T16:40:54.002Z,96827.69
2022-12-01T16:43:24.173Z,96817.38
2022-12-01T16:46:00.255Z,96826.72
2022-12-01T16:48:27.319Z,96827.00
2022-12-01T16:50:54.420Z,96825.69
2022-12-01T16:53:21.294Z,96825.38
2022-12-01T16:55:56.898Z,96827.00
2022-12-01T16:58:23.857Z,96820.47
2022-12-01T17:00:54.639Z,96822.13
2022-12-01T17:03:27.272Z,96822.94
2022-12-01T17:05:54.978Z,96819.03
2022-12-01T17:08:22.645Z,96830.28
2022-12-01T17:10:50.787Z,96827.00
2022-12-01T17:13:23.250Z,96827.34
2022-12-01T17:15:54.622Z,96826.38
2022-12-01T17:18:23.594Z,96825.56
2022-12-01T17:21:03.329Z,96824.41
2022-12-01T17:23:30.316Z,96824.06
2022-12-01T17:25:57.156Z,96819.19
2022-12-01T17:28:23.974Z,96820.47
2022-12-01T17:30:50.934Z,96828.25
2022-12-01T17:33:18.036Z,96824.53
2022-12-01T17:35:44.863Z,96824.34
2022-12-01T17:38:11.663Z,96820.28
2022-12-01T17:40:38.564Z,96820.44
2022-12-01T17:43:08.172Z,96831.66
2022-12-01T17:45:35.044Z,96827.56
2022-12-01T17:48:01.844Z,96820.72
2022-12-01T17:50:28.640Z,96828.88
2022-12-01T17:52:55.427Z,96824.16
2022-12-01T17:55:22.194Z,96829.50
2022-12-01T17:57:49.060Z,96834.09
2022-12-01T18:00:16.636Z,96821.03
2022-12-01T18:02:43.623Z,96833.13
2022-12-01T18:05:12.303Z,96833.81
2022-12-01T18:07:39.296Z,96830.19
2022-12-01T18:10:06.959Z,96828.59
2022-12-01T18:12:33.911Z,96828.59
2022-12-01T18:15:00.926Z,96834.31
2022-12-01T18:17:27.760Z,96830.88
2022-12-01T18:19:54.666Z,96838.41
2022-12-01T18:22:22.502Z,96838.69
2022-12-01T18:24:49.695Z,96837.88
2022-12-01T18:27:16.812Z,96829.91
2022-12-01T18:29:43.842Z,96837.44
2022-12-01T18:32:10.690Z,96840.06
2022-12-01T18:34:37.513Z,96831.88
2022-12-01T18:37:05.962Z,96833.47
2022-12-01T18:39:33.468Z,96841.66
2022-12-01T18:42:00.444Z,96836.13
2022-12-01T18:44:27.406Z,96842.63
2022-12-01T18:46:54.554Z,96842.47
2022-12-01T18:49:21.451Z,96837.25
2022-12-01T18:51:48.340Z,96843.28
2022-12-01T18:54:16.590Z,96840.00
2022-12-01T18:56:43.531Z,96848.22
2022-12-01T18:59:12.752Z,96837.25
2022-12-01T19:01:44.153Z,96837.25
2022-12-01T19:04:11.444Z,96839.38
2022-12-01T19:06:40.192Z,96837.88
2022-12-01T19:09:11.341Z,96842.28
2022-12-01T19:11:40.432Z,96837.06
2022-12-01T19:14:09.619Z,96839.03
2022-12-01T19:16:36.570Z,96830.53
2022-12-01T19:19:03.461Z,96835.41
2022-12-01T19:21:30.441Z,96836.56
2022-12-01T19:23:57.785Z,96827.97
2022-12-01T19:26:25.856Z,96832.19
2022-12-01T19:28:52.944Z,96834.78
2022-12-01T19:31:23.693Z,96832.84
2022-12-01T19:33:52.076Z,96832.50
2022-12-01T19:36:22.325Z,96837.25
2022-12-01T19:38:49.644Z,96837.78
2022-12-01T19:41:20.335Z,96841.34
2022-12-01T19:43:47.979Z,96837.25
2022-12-01T19:46:18.727Z,96826.31
2022-12-01T19:48:46.524Z,96830.41
2022-12-01T19:51:26.372Z,96833.00
2022-12-01T19:53:54.040Z,96838.59
2022-12-01T19:56:21.699Z,96834.50
2022-12-01T19:58:48.805Z,96835.00
2022-12-01T20:01:17.900Z,96839.38
2022-12-01T20:03:47.674Z,96837.41
2022-12-01T20:06:18.350Z,96834.16
2022-12-01T20:08:45.711Z,96838.91
2022-12-01T20:11:14.310Z,96838.91
2022-12-01T20:13:43.477Z,96841.03
2022-12-01T20:16:12.687Z,96842.81
2022-12-01T20:18:40.981Z,96847.22
2022-12-01T20:21:36.755Z,96843.81
2022-12-01T20:24:07.151Z,96838.75
2022-12-01T20:26:47.101Z,96837.78
2022-12-01T20:29:21.718Z,96838.59
2022-12-01T20:31:50.835Z,96837.78
2022-12-01T20:34:33.412Z,96827.63
2022-12-01T20:37:01.630Z,96831.53
2022-12-01T20:39:32.727Z,96837.06
2022-12-01T20:41:59.698Z,96839.47
2022-12-01T20:44:27.789Z,96834.16
2022-12-01T20:46:55.750Z,96830.72
2022-12-01T20:49:23.014Z,96838.69
2022-12-01T20:51:51.096Z,96837.59
2022-12-01T20:54:29.073Z,96831.34
2022-12-01T20:56:58.862Z,96838.22
2022-12-01T20:59:26.406Z,96829.38
2022-12-01T21:01:54.090Z,96836.44
2022-12-01T21:04:21.443Z,96834.78
2022-12-01T21:06:50.274Z,96830.19
2022-12-01T21:09:18.076Z,96836.03
2022-12-01T21:12:09.388Z,96828.25
2022-12-01T21:14:48.940Z,96834.09
2022-12-01T21:17:22.456Z,96828.25
2022-12-01T21:20:21.581Z,96831.84
2022-12-01T21:22:50.456Z,96827.59
2022-12-01T21:25:24.278Z,96827.91
2022-12-01T21:27:51.514Z,96833.75
2022-12-01T21:30:22.312Z,96831.84
2022-12-01T21:32:50.083Z,96831.53
2022-12-01T21:35:24.739Z,96831.22
2022-12-01T21:37:59.015Z,96833.81
2022-12-01T21:40:28.357Z,96828.75
2022-12-01T21:43:00.353Z,96827.63
2022-12-01T21:45:29.856Z,96825.81
2022-12-01T21:48:22.981Z,96829.56
2022-12-01T21:51:00.891Z,96828.75
2022-12-01T21:53:37.642Z,96827.28
2022-12-01T21:56:04.655Z,96819.75
2022-12-01T21:58:36.945Z,96823.38
2022-12-01T22:01:20.124Z,96829.09
2022-12-01T22:03:47.594Z,96824.69
2022-12-01T22:06:43.270Z,96827.63
2022-12-01T22:09:33.919Z,96818.66
2022-12-01T22:12:28.778Z,96811.63
2022-12-01T22:15:01.024Z,96807.03
2022-12-01T22:17:28.239Z,96814.88
2022-12-01T22:20:02.255Z,96821.41
2022-12-01T22:22:30.803Z,96813.72
2022-12-01T22:25:24.353Z,96811.28
2022-12-01T22:27:51.976Z,96806.56
2022-12-01T22:30:22.677Z,96810.97
2022-12-01T22:32:59.207Z,96799.56
2022-12-01T22:35:42.377Z,96800.22
2022-12-01T22:38:09.025Z,96794.69
2022-12-01T22:40:43.032Z,96792.22
2022-12-01T22:43:15.852Z,96795.50
2022-12-01T22:46:08.652Z,96795.31
2022-12-01T22:48:44.408Z,96790.09
2022-12-01T22:51:14.170Z,96788.81
2022-12-01T22:53:42.242Z,96792.06
2022-12-01T22:56:33.936Z,96785.84
2022-12-01T22:59:09.725Z,96781.09
2022-12-01T23:01:47.152Z,96786.66
2022-12-01T23:04:28.664Z,96780.13
2022-12-01T23:07:09.480Z,96783.38
2022-12-01T23:09:41.799Z,96780.91
2022-12-01T23:12:11.583Z,96779.28
2022-12-01T23:14:51.810Z,96774.06
2022-12-01T23:17:24.144Z,96770.47
2022-12-01T23:19:58.828Z,96776.22
2022-12-01T23:22:25.635Z,96767.88
2022-12-01T23:24:52.820Z,96772.13
2022-12-01T23:27:19.766Z,96769.38
2022-12-01T23:29:46.660Z,96763.34
2022-12-01T23:32:13.527Z,96763.00
2022-12-01T23:34:40.412Z,96766.94
2022-12-01T23:37:29.024Z,96757.78
2022-12-01T23:39:56.205Z,96761.88
2022-12-01T23:42:23.044Z,96760.75
2022-12-01T23:44:50.329Z,96754.19
2022-12-01T23:47:25.566Z,96760.09
2022-12-01T23:50:01.118Z,96749.31
2022-12-01T23:52:35.469Z,96755.69
2022-12-01T23:55:23.433Z,96748.31
2022-12-01T23:57:51.401Z,96741.00
